Météo aviation pour un terrain ou une ville
Choisir un ou une

Vous pouvez entrer RAPIDEMENT les premières lettres pour sélectionner

Aéroport choisi : LFCK - CASTRES - MAZAMET
Visibilité


Supérieure à 10 km

Soleil
Lever : 07:51
Coucher : 17:20
Distance Terre - Lune
400688 kms

Phase actuelle: Premier quartier
Température
Pression
Humidité
Force du vent
Direction du vent
Temps présent
Temps present Nuageux

Ensoleillement : 70 %
Il fait Nuit
Heure d'observation : 2018/11/17 01:30. Soit il y a 0 H 32 mn
Décodage METAR, TAF et désign par Philippe Guiraud
METAR : 2018/11/17 00:30 LFCK 170030Z AUTO 12014KT 9999 SCT025 14/10 Q1020
Prévisions (décodage des TAF)
Pas de prévisions (TAF) pour cette station
Historique pour les derniéres 24 heures
Carte satellite actuelle
Satellite Image